sensor_id;sensor_type;location;lat;lon;timestamp;P1;durP1;ratioP1;P2;durP2;ratioP2
70216;SDS011;65567;55.684;37.570;2024-03-02T00:02:12;49.33;;;24.38;;
70216;SDS011;65567;55.684;37.570;2024-03-02T00:04:39;50.13;;;26.33;;
70216;SDS011;65567;55.684;37.570;2024-03-02T00:07:06;55.65;;;26.95;;
70216;SDS011;65567;55.684;37.570;2024-03-02T00:09:33;48.63;;;25.15;;
70216;SDS011;65567;55.684;37.570;2024-03-02T00:12:01;50.35;;;26.67;;
70216;SDS011;65567;55.684;37.570;2024-03-02T00:14:31;50.17;;;26.48;;
70216;SDS011;65567;55.684;37.570;2024-03-02T00:16:57;48.75;;;26.05;;
70216;SDS011;65567;55.684;37.570;2024-03-02T00:19:24;45.50;;;26.48;;
70216;SDS011;65567;55.684;37.570;2024-03-02T00:21:50;52.05;;;25.80;;
70216;SDS011;65567;55.684;37.570;2024-03-02T00:24:31;54.63;;;27.20;;
70216;SDS011;65567;55.684;37.570;2024-03-02T00:26:59;61.70;;;28.85;;
70216;SDS011;65567;55.684;37.570;2024-03-02T00:29:25;110.65;;;31.75;;
70216;SDS011;65567;55.684;37.570;2024-03-02T00:31:53;63.13;;;28.20;;
70216;SDS011;65567;55.684;37.570;2024-03-02T00:34:22;66.28;;;27.15;;
70216;SDS011;65567;55.684;37.570;2024-03-02T00:36:49;99.68;;;32.97;;
70216;SDS011;65567;55.684;37.570;2024-03-02T00:39:15;56.35;;;28.13;;
70216;SDS011;65567;55.684;37.570;2024-03-02T00:41:44;63.63;;;29.33;;
70216;SDS011;65567;55.684;37.570;2024-03-02T00:44:13;73.75;;;28.42;;
70216;SDS011;65567;55.684;37.570;2024-03-02T00:46:42;53.72;;;25.45;;
70216;SDS011;65567;55.684;37.570;2024-03-02T00:51:36;49.20;;;26.33;;
70216;SDS011;65567;55.684;37.570;2024-03-02T00:54:07;50.75;;;26.38;;
70216;SDS011;65567;55.684;37.570;2024-03-02T00:56:34;50.13;;;26.77;;
70216;SDS011;65567;55.684;37.570;2024-03-02T00:59:03;49.05;;;26.15;;
70216;SDS011;65567;55.684;37.570;2024-03-02T01:01:29;44.50;;;25.80;;
70216;SDS011;65567;55.684;37.570;2024-03-02T01:03:55;53.20;;;26.33;;
70216;SDS011;65567;55.684;37.570;2024-03-02T01:06:21;48.58;;;25.77;;
70216;SDS011;65567;55.684;37.570;2024-03-02T01:08:47;48.30;;;26.30;;
70216;SDS011;65567;55.684;37.570;2024-03-02T01:11:16;52.38;;;26.55;;
70216;SDS011;65567;55.684;37.570;2024-03-02T01:13:43;47.33;;;26.92;;
70216;SDS011;65567;55.684;37.570;2024-03-02T01:16:12;43.67;;;24.52;;
70216;SDS011;65567;55.684;37.570;2024-03-02T01:18:41;46.30;;;26.77;;
70216;SDS011;65567;55.684;37.570;2024-03-02T01:21:07;45.53;;;25.80;;
70216;SDS011;65567;55.684;37.570;2024-03-02T01:23:33;47.65;;;25.38;;
70216;SDS011;65567;55.684;37.570;2024-03-02T01:25:59;54.25;;;28.23;;
70216;SDS011;65567;55.684;37.570;2024-03-02T01:28:25;44.63;;;25.00;;
70216;SDS011;65567;55.684;37.570;2024-03-02T01:30:51;50.38;;;27.13;;
70216;SDS011;65567;55.684;37.570;2024-03-02T01:33:17;47.88;;;26.20;;
70216;SDS011;65567;55.684;37.570;2024-03-02T01:35:44;49.92;;;26.80;;
70216;SDS011;65567;55.684;37.570;2024-03-02T01:38:10;47.55;;;26.77;;
70216;SDS011;65567;55.684;37.570;2024-03-02T01:40:36;47.33;;;26.92;;
70216;SDS011;65567;55.684;37.570;2024-03-02T01:43:06;46.35;;;26.52;;
70216;SDS011;65567;55.684;37.570;2024-03-02T01:45:32;48.50;;;26.57;;
70216;SDS011;65567;55.684;37.570;2024-03-02T01:47:59;47.17;;;27.08;;
70216;SDS011;65567;55.684;37.570;2024-03-02T01:50:26;55.50;;;26.70;;
70216;SDS011;65567;55.684;37.570;2024-03-02T01:52:57;46.72;;;26.90;;
70216;SDS011;65567;55.684;37.570;2024-03-02T01:55:24;52.25;;;27.13;;
70216;SDS011;65567;55.684;37.570;2024-03-02T01:57:51;45.08;;;26.02;;
70216;SDS011;65567;55.684;37.570;2024-03-02T02:00:20;47.47;;;26.13;;
70216;SDS011;65567;55.684;37.570;2024-03-02T02:02:50;48.80;;;25.23;;
70216;SDS011;65567;55.684;37.570;2024-03-02T02:05:16;44.33;;;24.42;;
70216;SDS011;65567;55.684;37.570;2024-03-02T02:07:42;47.28;;;25.65;;
70216;SDS011;65567;55.684;37.570;2024-03-02T02:10:09;55.60;;;25.65;;
70216;SDS011;65567;55.684;37.570;2024-03-02T02:12:39;49.17;;;25.42;;
70216;SDS011;65567;55.684;37.570;2024-03-02T02:17:56;48.28;;;25.60;;
70216;SDS011;65567;55.684;37.570;2024-03-02T02:20:23;46.70;;;26.30;;
70216;SDS011;65567;55.684;37.570;2024-03-02T02:22:59;45.20;;;26.52;;
70216;SDS011;65567;55.684;37.570;2024-03-02T02:25:26;47.05;;;26.92;;
70216;SDS011;65567;55.684;37.570;2024-03-02T02:27:53;49.05;;;25.90;;
70216;SDS011;65567;55.684;37.570;2024-03-02T02:30:23;47.33;;;26.98;;
70216;SDS011;65567;55.684;37.570;2024-03-02T02:32:54;48.42;;;27.73;;
70216;SDS011;65567;55.684;37.570;2024-03-02T02:35:19;45.90;;;26.23;;
70216;SDS011;65567;55.684;37.570;2024-03-02T02:37:46;48.97;;;26.60;;
70216;SDS011;65567;55.684;37.570;2024-03-02T02:40:14;48.22;;;27.15;;
70216;SDS011;65567;55.684;37.570;2024-03-02T02:42:40;50.13;;;26.42;;
70216;SDS011;65567;55.684;37.570;2024-03-02T02:45:06;51.00;;;28.15;;
70216;SDS011;65567;55.684;37.570;2024-03-02T02:47:32;50.05;;;25.77;;
70216;SDS011;65567;55.684;37.570;2024-03-02T02:50:02;44.15;;;25.45;;
70216;SDS011;65567;55.684;37.570;2024-03-02T02:52:35;48.10;;;27.25;;
70216;SDS011;65567;55.684;37.570;2024-03-02T02:55:06;52.17;;;27.83;;
70216;SDS011;65567;55.684;37.570;2024-03-02T02:57:34;46.22;;;27.02;;
70216;SDS011;65567;55.684;37.570;2024-03-02T03:00:02;47.05;;;27.45;;
70216;SDS011;65567;55.684;37.570;2024-03-02T03:02:30;47.53;;;27.17;;
70216;SDS011;65567;55.684;37.570;2024-03-02T03:04:56;56.53;;;28.20;;
70216;SDS011;65567;55.684;37.570;2024-03-02T03:07:22;50.03;;;27.38;;
70216;SDS011;65567;55.684;37.570;2024-03-02T03:09:48;49.08;;;27.42;;
70216;SDS011;65567;55.684;37.570;2024-03-02T03:12:14;48.20;;;25.65;;
70216;SDS011;65567;55.684;37.570;2024-03-02T03:14:40;44.13;;;22.73;;
70216;SDS011;65567;55.684;37.570;2024-03-02T03:17:06;47.58;;;26.00;;
70216;SDS011;65567;55.684;37.570;2024-03-02T03:19:33;47.38;;;25.77;;
70216;SDS011;65567;55.684;37.570;2024-03-02T03:21:59;46.60;;;26.17;;
70216;SDS011;65567;55.684;37.570;2024-03-02T03:24:25;50.97;;;27.23;;
70216;SDS011;65567;55.684;37.570;2024-03-02T03:26:51;48.58;;;26.77;;
70216;SDS011;65567;55.684;37.570;2024-03-02T03:29:17;46.95;;;26.83;;
70216;SDS011;65567;55.684;37.570;2024-03-02T03:31:43;58.17;;;26.33;;
70216;SDS011;65567;55.684;37.570;2024-03-02T03:34:08;50.50;;;26.85;;
70216;SDS011;65567;55.684;37.570;2024-03-02T03:36:37;48.35;;;27.33;;
70216;SDS011;65567;55.684;37.570;2024-03-02T03:39:03;51.67;;;26.30;;
70216;SDS011;65567;55.684;37.570;2024-03-02T03:41:31;49.75;;;28.00;;
70216;SDS011;65567;55.684;37.570;2024-03-02T03:43:57;46.40;;;26.90;;
70216;SDS011;65567;55.684;37.570;2024-03-02T03:46:22;47.67;;;28.08;;
70216;SDS011;65567;55.684;37.570;2024-03-02T03:48:54;48.97;;;27.67;;
70216;SDS011;65567;55.684;37.570;2024-03-02T03:51:23;52.08;;;28.35;;
70216;SDS011;65567;55.684;37.570;2024-03-02T03:53:49;45.95;;;26.85;;
70216;SDS011;65567;55.684;37.570;2024-03-02T03:56:14;53.22;;;28.65;;
70216;SDS011;65567;55.684;37.570;2024-03-02T03:58:40;43.90;;;26.67;;
70216;SDS011;65567;55.684;37.570;2024-03-02T04:01:07;45.00;;;26.23;;
70216;SDS011;65567;55.684;37.570;2024-03-02T04:03:33;48.60;;;26.63;;
70216;SDS011;65567;55.684;37.570;2024-03-02T04:05:59;50.00;;;27.52;;
70216;SDS011;65567;55.684;37.570;2024-03-02T04:08:24;47.83;;;26.60;;
70216;SDS011;65567;55.684;37.570;2024-03-02T04:10:50;44.78;;;26.08;;
70216;SDS011;65567;55.684;37.570;2024-03-02T04:13:16;50.03;;;27.40;;
70216;SDS011;65567;55.684;37.570;2024-03-02T04:15:42;49.42;;;26.63;;
70216;SDS011;65567;55.684;37.570;2024-03-02T04:18:08;50.58;;;28.17;;
70216;SDS011;65567;55.684;37.570;2024-03-02T04:20:34;49.72;;;27.73;;
70216;SDS011;65567;55.684;37.570;2024-03-02T04:23:00;48.45;;;26.50;;
70216;SDS011;65567;55.684;37.570;2024-03-02T04:25:26;53.28;;;27.73;;
70216;SDS011;65567;55.684;37.570;2024-03-02T04:27:52;44.65;;;24.88;;
70216;SDS011;65567;55.684;37.570;2024-03-02T04:30:18;53.58;;;27.92;;
70216;SDS011;65567;55.684;37.570;2024-03-02T04:32:44;51.08;;;28.67;;
70216;SDS011;65567;55.684;37.570;2024-03-02T04:35:14;47.88;;;26.88;;
70216;SDS011;65567;55.684;37.570;2024-03-02T04:37:40;54.53;;;28.38;;
70216;SDS011;65567;55.684;37.570;2024-03-02T04:40:08;52.58;;;27.65;;
70216;SDS011;65567;55.684;37.570;2024-03-02T04:42:35;45.83;;;27.08;;
70216;SDS011;65567;55.684;37.570;2024-03-02T04:45:01;53.28;;;28.90;;
70216;SDS011;65567;55.684;37.570;2024-03-02T04:47:27;51.20;;;28.85;;
70216;SDS011;65567;55.684;37.570;2024-03-02T04:49:53;51.70;;;29.27;;
70216;SDS011;65567;55.684;37.570;2024-03-02T04:52:18;54.38;;;28.85;;
70216;SDS011;65567;55.684;37.570;2024-03-02T04:54:44;57.65;;;31.48;;
70216;SDS011;65567;55.684;37.570;2024-03-02T04:57:28;55.88;;;31.48;;
70216;SDS011;65567;55.684;37.570;2024-03-02T04:59:54;52.90;;;29.58;;
70216;SDS011;65567;55.684;37.570;2024-03-02T05:02:20;52.83;;;31.65;;
70216;SDS011;65567;55.684;37.570;2024-03-02T05:04:46;60.92;;;32.30;;
70216;SDS011;65567;55.684;37.570;2024-03-02T05:07:14;57.30;;;33.90;;
70216;SDS011;65567;55.684;37.570;2024-03-02T05:09:40;55.80;;;31.08;;
70216;SDS011;65567;55.684;37.570;2024-03-02T05:12:05;56.08;;;32.65;;
70216;SDS011;65567;55.684;37.570;2024-03-02T05:14:50;56.45;;;31.38;;
70216;SDS011;65567;55.684;37.570;2024-03-02T05:17:16;55.60;;;32.17;;
70216;SDS011;65567;55.684;37.570;2024-03-02T05:19:41;60.20;;;31.90;;
70216;SDS011;65567;55.684;37.570;2024-03-02T05:22:07;57.63;;;30.38;;
70216;SDS011;65567;55.684;37.570;2024-03-02T05:24:33;48.42;;;25.40;;
70216;SDS011;65567;55.684;37.570;2024-03-02T05:26:59;56.47;;;32.70;;
70216;SDS011;65567;55.684;37.570;2024-03-02T05:29:25;60.88;;;32.25;;
70216;SDS011;65567;55.684;37.570;2024-03-02T05:31:51;44.97;;;24.17;;
70216;SDS011;65567;55.684;37.570;2024-03-02T05:34:16;54.13;;;30.73;;
70216;SDS011;65567;55.684;37.570;2024-03-02T05:36:45;54.35;;;30.20;;
70216;SDS011;65567;55.684;37.570;2024-03-02T05:39:10;58.55;;;31.90;;
70216;SDS011;65567;55.684;37.570;2024-03-02T05:41:36;55.22;;;31.70;;
70216;SDS011;65567;55.684;37.570;2024-03-02T05:44:05;54.28;;;31.42;;
70216;SDS011;65567;55.684;37.570;2024-03-02T05:46:31;58.70;;;32.90;;
70216;SDS011;65567;55.684;37.570;2024-03-02T05:48:58;59.13;;;32.67;;
70216;SDS011;65567;55.684;37.570;2024-03-02T05:51:24;54.50;;;30.73;;
70216;SDS011;65567;55.684;37.570;2024-03-02T05:53:50;56.92;;;32.85;;
70216;SDS011;65567;55.684;37.570;2024-03-02T05:56:16;53.20;;;32.95;;
70216;SDS011;65567;55.684;37.570;2024-03-02T05:58:42;58.70;;;32.40;;
70216;SDS011;65567;55.684;37.570;2024-03-02T06:01:34;56.65;;;32.50;;
70216;SDS011;65567;55.684;37.570;2024-03-02T06:04:00;56.72;;;32.55;;
70216;SDS011;65567;55.684;37.570;2024-03-02T06:06:26;59.28;;;32.15;;
70216;SDS011;65567;55.684;37.570;2024-03-02T06:08:51;62.78;;;34.90;;
70216;SDS011;65567;55.684;37.570;2024-03-02T06:11:21;79.25;;;33.25;;
70216;SDS011;65567;55.684;37.570;2024-03-02T06:13:46;66.95;;;34.35;;
70216;SDS011;65567;55.684;37.570;2024-03-02T06:16:12;62.63;;;33.22;;
70216;SDS011;65567;55.684;37.570;2024-03-02T06:18:38;61.70;;;33.33;;
70216;SDS011;65567;55.684;37.570;2024-03-02T06:21:07;72.20;;;32.50;;
70216;SDS011;65567;55.684;37.570;2024-03-02T06:23:33;125.65;;;39.33;;
70216;SDS011;65567;55.684;37.570;2024-03-02T06:26:03;63.55;;;34.03;;
70216;SDS011;65567;55.684;37.570;2024-03-02T06:28:29;68.53;;;36.83;;
70216;SDS011;65567;55.684;37.570;2024-03-02T06:30:54;64.63;;;38.90;;
70216;SDS011;65567;55.684;37.570;2024-03-02T06:33:20;66.72;;;38.40;;
70216;SDS011;65567;55.684;37.570;2024-03-02T06:35:46;61.20;;;35.10;;
70216;SDS011;65567;55.684;37.570;2024-03-02T06:38:12;73.28;;;43.35;;
70216;SDS011;65567;55.684;37.570;2024-03-02T06:40:38;80.65;;;45.63;;
70216;SDS011;65567;55.684;37.570;2024-03-02T06:43:04;75.47;;;38.92;;
70216;SDS011;65567;55.684;37.570;2024-03-02T06:45:30;60.53;;;30.42;;
70216;SDS011;65567;55.684;37.570;2024-03-02T06:47:56;78.63;;;47.42;;
70216;SDS011;65567;55.684;37.570;2024-03-02T06:50:22;77.35;;;49.25;;
70216;SDS011;65567;55.684;37.570;2024-03-02T06:52:47;102.90;;;50.30;;
70216;SDS011;65567;55.684;37.570;2024-03-02T06:55:13;121.25;;;54.42;;
70216;SDS011;65567;55.684;37.570;2024-03-02T06:57:39;113.47;;;56.35;;
70216;SDS011;65567;55.684;37.570;2024-03-02T07:00:05;124.03;;;58.00;;
70216;SDS011;65567;55.684;37.570;2024-03-02T07:02:34;139.48;;;59.88;;
70216;SDS011;65567;55.684;37.570;2024-03-02T07:05:01;127.97;;;61.65;;
70216;SDS011;65567;55.684;37.570;2024-03-02T07:07:28;107.25;;;59.20;;
70216;SDS011;65567;55.684;37.570;2024-03-02T07:09:54;104.68;;;62.85;;
70216;SDS011;65567;55.684;37.570;2024-03-02T07:12:20;111.93;;;63.40;;
70216;SDS011;65567;55.684;37.570;2024-03-02T07:14:45;115.25;;;64.18;;
70216;SDS011;65567;55.684;37.570;2024-03-02T07:17:29;96.07;;;58.95;;
70216;SDS011;65567;55.684;37.570;2024-03-02T07:19:58;127.15;;;66.00;;
70216;SDS011;65567;55.684;37.570;2024-03-02T07:22:24;121.45;;;61.58;;
70216;SDS011;65567;55.684;37.570;2024-03-02T07:24:49;103.65;;;58.40;;
70216;SDS011;65567;55.684;37.570;2024-03-02T07:27:16;98.50;;;55.33;;
70216;SDS011;65567;55.684;37.570;2024-03-02T07:29:43;84.32;;;50.78;;
70216;SDS011;65567;55.684;37.570;2024-03-02T07:32:09;98.40;;;52.22;;
70216;SDS011;65567;55.684;37.570;2024-03-02T07:34:38;99.03;;;52.97;;
70216;SDS011;65567;55.684;37.570;2024-03-02T07:37:03;113.57;;;52.80;;
70216;SDS011;65567;55.684;37.570;2024-03-02T07:39:29;84.38;;;44.65;;
70216;SDS011;65567;55.684;37.570;2024-03-02T07:41:55;91.70;;;49.22;;
70216;SDS011;65567;55.684;37.570;2024-03-02T07:44:22;101.45;;;50.95;;
70216;SDS011;65567;55.684;37.570;2024-03-02T07:46:48;85.65;;;47.30;;
70216;SDS011;65567;55.684;37.570;2024-03-02T07:49:16;81.25;;;34.58;;
70216;SDS011;65567;55.684;37.570;2024-03-02T07:51:43;76.03;;;40.75;;
70216;SDS011;65567;55.684;37.570;2024-03-02T07:54:09;84.43;;;45.03;;
70216;SDS011;65567;55.684;37.570;2024-03-02T07:56:37;85.82;;;51.78;;
70216;SDS011;65567;55.684;37.570;2024-03-02T07:59:03;85.15;;;50.65;;
70216;SDS011;65567;55.684;37.570;2024-03-02T08:01:30;78.47;;;49.97;;
70216;SDS011;65567;55.684;37.570;2024-03-02T08:04:00;81.43;;;48.25;;
70216;SDS011;65567;55.684;37.570;2024-03-02T08:06:28;76.20;;;47.22;;
70216;SDS011;65567;55.684;37.570;2024-03-02T08:08:58;68.45;;;40.60;;
70216;SDS011;65567;55.684;37.570;2024-03-02T08:11:24;72.67;;;41.13;;
70216;SDS011;65567;55.684;37.570;2024-03-02T08:13:50;78.88;;;43.22;;
70216;SDS011;65567;55.684;37.570;2024-03-02T08:16:18;72.72;;;42.78;;
70216;SDS011;65567;55.684;37.570;2024-03-02T08:18:47;68.10;;;40.50;;
70216;SDS011;65567;55.684;37.570;2024-03-02T08:21:14;70.50;;;39.92;;
70216;SDS011;65567;55.684;37.570;2024-03-02T08:23:40;66.15;;;40.25;;
70216;SDS011;65567;55.684;37.570;2024-03-02T08:26:08;65.65;;;42.10;;
70216;SDS011;65567;55.684;37.570;2024-03-02T08:28:34;68.68;;;41.15;;
70216;SDS011;65567;55.684;37.570;2024-03-02T08:31:06;61.92;;;37.55;;
70216;SDS011;65567;55.684;37.570;2024-03-02T08:33:32;62.00;;;38.78;;
70216;SDS011;65567;55.684;37.570;2024-03-02T08:35:58;58.25;;;36.17;;
70216;SDS011;65567;55.684;37.570;2024-03-02T08:38:24;83.97;;;38.15;;
70216;SDS011;65567;55.684;37.570;2024-03-02T08:40:50;59.83;;;34.50;;
70216;SDS011;65567;55.684;37.570;2024-03-02T08:43:16;58.65;;;35.55;;
70216;SDS011;65567;55.684;37.570;2024-03-02T08:45:42;72.82;;;33.85;;
70216;SDS011;65567;55.684;37.570;2024-03-02T08:48:08;61.58;;;35.72;;
70216;SDS011;65567;55.684;37.570;2024-03-02T08:50:36;54.47;;;35.15;;
70216;SDS011;65567;55.684;37.570;2024-03-02T08:53:03;66.80;;;34.75;;
70216;SDS011;65567;55.684;37.570;2024-03-02T08:55:29;75.80;;;35.00;;
70216;SDS011;65567;55.684;37.570;2024-03-02T08:57:57;56.42;;;35.22;;
70216;SDS011;65567;55.684;37.570;2024-03-02T09:00:23;63.15;;;37.17;;
70216;SDS011;65567;55.684;37.570;2024-03-02T09:02:50;58.85;;;33.95;;
70216;SDS011;65567;55.684;37.570;2024-03-02T09:05:15;62.22;;;36.10;;
70216;SDS011;65567;55.684;37.570;2024-03-02T09:07:41;70.22;;;37.78;;
70216;SDS011;65567;55.684;37.570;2024-03-02T09:10:07;82.43;;;37.75;;
70216;SDS011;65567;55.684;37.570;2024-03-02T09:12:34;70.72;;;35.92;;
70216;SDS011;65567;55.684;37.570;2024-03-02T09:15:00;85.30;;;33.15;;
70216;SDS011;65567;55.684;37.570;2024-03-02T09:17:28;65.53;;;36.78;;
70216;SDS011;65567;55.684;37.570;2024-03-02T09:19:54;57.20;;;33.28;;
70216;SDS011;65567;55.684;37.570;2024-03-02T09:22:19;60.28;;;34.33;;
70216;SDS011;65567;55.684;37.570;2024-03-02T09:24:45;59.97;;;34.80;;
70216;SDS011;65567;55.684;37.570;2024-03-02T09:27:11;58.60;;;35.28;;
70216;SDS011;65567;55.684;37.570;2024-03-02T09:29:37;59.58;;;29.40;;
70216;SDS011;65567;55.684;37.570;2024-03-02T09:32:03;120.40;;;38.97;;
70216;SDS011;65567;55.684;37.570;2024-03-02T09:34:32;83.50;;;34.85;;
70216;SDS011;65567;55.684;37.570;2024-03-02T09:36:59;82.30;;;34.03;;
70216;SDS011;65567;55.684;37.570;2024-03-02T09:39:25;58.20;;;32.58;;
70216;SDS011;65567;55.684;37.570;2024-03-02T09:41:51;64.00;;;33.33;;
70216;SDS011;65567;55.684;37.570;2024-03-02T09:44:17;48.25;;;27.63;;
70216;SDS011;65567;55.684;37.570;2024-03-02T09:46:49;55.30;;;32.25;;
70216;SDS011;65567;55.684;37.570;2024-03-02T09:49:15;51.53;;;30.48;;
70216;SDS011;65567;55.684;37.570;2024-03-02T09:51:41;66.28;;;30.80;;
70216;SDS011;65567;55.684;37.570;2024-03-02T09:54:13;62.10;;;30.35;;
70216;SDS011;65567;55.684;37.570;2024-03-02T09:56:38;70.82;;;35.67;;
70216;SDS011;65567;55.684;37.570;2024-03-02T09:59:04;83.07;;;35.75;;
70216;SDS011;65567;55.684;37.570;2024-03-02T10:01:30;63.78;;;35.30;;
70216;SDS011;65567;55.684;37.570;2024-03-02T10:03:58;50.38;;;28.92;;
70216;SDS011;65567;55.684;37.570;2024-03-02T10:06:25;58.55;;;32.63;;
70216;SDS011;65567;55.684;37.570;2024-03-02T10:08:52;53.20;;;30.90;;
70216;SDS011;65567;55.684;37.570;2024-03-02T10:11:40;59.78;;;33.13;;
70216;SDS011;65567;55.684;37.570;2024-03-02T10:14:12;53.28;;;29.42;;
70216;SDS011;65567;55.684;37.570;2024-03-02T10:16:39;53.67;;;30.50;;
70216;SDS011;65567;55.684;37.570;2024-03-02T10:21:52;58.90;;;32.92;;
70216;SDS011;65567;55.684;37.570;2024-03-02T10:26:45;51.70;;;30.90;;
70216;SDS011;65567;55.684;37.570;2024-03-02T10:29:11;56.75;;;31.17;;
70216;SDS011;65567;55.684;37.570;2024-03-02T10:31:38;49.03;;;26.23;;
70216;SDS011;65567;55.684;37.570;2024-03-02T10:34:08;53.25;;;30.85;;
70216;SDS011;65567;55.684;37.570;2024-03-02T10:36:36;42.15;;;23.05;;
70216;SDS011;65567;55.684;37.570;2024-03-02T10:39:03;49.85;;;30.45;;
70216;SDS011;65567;55.684;37.570;2024-03-02T10:41:32;50.33;;;31.55;;
70216;SDS011;65567;55.684;37.570;2024-03-02T10:44:02;45.03;;;29.48;;
70216;SDS011;65567;55.684;37.570;2024-03-02T10:46:33;55.00;;;30.83;;
70216;SDS011;65567;55.684;37.570;2024-03-02T10:49:02;50.47;;;31.35;;
70216;SDS011;65567;55.684;37.570;2024-03-02T10:51:29;46.47;;;23.50;;
70216;SDS011;65567;55.684;37.570;2024-03-02T10:53:59;53.50;;;31.47;;
70216;SDS011;65567;55.684;37.570;2024-03-02T10:56:29;48.88;;;29.13;;
70216;SDS011;65567;55.684;37.570;2024-03-02T11:01:33;54.17;;;32.10;;
70216;SDS011;65567;55.684;37.570;2024-03-02T11:04:02;51.90;;;31.98;;
70216;SDS011;65567;55.684;37.570;2024-03-02T11:06:33;54.58;;;31.90;;
70216;SDS011;65567;55.684;37.570;2024-03-02T11:11:35;57.67;;;33.00;;
70216;SDS011;65567;55.684;37.570;2024-03-02T11:14:02;58.03;;;29.90;;
70216;SDS011;65567;55.684;37.570;2024-03-02T11:16:34;53.88;;;28.13;;
70216;SDS011;65567;55.684;37.570;2024-03-02T11:19:11;79.88;;;31.77;;
70216;SDS011;65567;55.684;37.570;2024-03-02T11:21:38;62.55;;;30.40;;
70216;SDS011;65567;55.684;37.570;2024-03-02T11:26:53;51.92;;;26.58;;
70216;SDS011;65567;55.684;37.570;2024-03-02T11:32:19;70.15;;;29.40;;
70216;SDS011;65567;55.684;37.570;2024-03-02T11:34:48;46.55;;;23.27;;
70216;SDS011;65567;55.684;37.570;2024-03-02T11:37:15;65.22;;;26.23;;
70216;SDS011;65567;55.684;37.570;2024-03-02T11:39:48;47.05;;;23.13;;
70216;SDS011;65567;55.684;37.570;2024-03-02T11:42:16;35.45;;;18.98;;
70216;SDS011;65567;55.684;37.570;2024-03-02T11:44:43;40.38;;;22.17;;
70216;SDS011;65567;55.684;37.570;2024-03-02T11:47:12;36.22;;;21.90;;
70216;SDS011;65567;55.684;37.570;2024-03-02T11:49:41;40.80;;;21.58;;
70216;SDS011;65567;55.684;37.570;2024-03-02T11:52:19;37.85;;;22.73;;
70216;SDS011;65567;55.684;37.570;2024-03-02T11:54:47;36.35;;;21.05;;
70216;SDS011;65567;55.684;37.570;2024-03-02T11:57:19;37.97;;;21.60;;
70216;SDS011;65567;55.684;37.570;2024-03-02T11:59:49;46.22;;;24.95;;
70216;SDS011;65567;55.684;37.570;2024-03-02T12:02:21;57.20;;;25.48;;
70216;SDS011;65567;55.684;37.570;2024-03-02T12:04:47;55.25;;;25.25;;
70216;SDS011;65567;55.684;37.570;2024-03-02T12:07:20;41.85;;;25.00;;
70216;SDS011;65567;55.684;37.570;2024-03-02T12:09:48;59.08;;;27.27;;
70216;SDS011;65567;55.684;37.570;2024-03-02T12:12:24;53.00;;;27.48;;
70216;SDS011;65567;55.684;37.570;2024-03-02T12:14:52;45.05;;;24.17;;
70216;SDS011;65567;55.684;37.570;2024-03-02T12:17:20;91.90;;;30.50;;
70216;SDS011;65567;55.684;37.570;2024-03-02T12:19:47;55.67;;;24.33;;
70216;SDS011;65567;55.684;37.570;2024-03-02T12:22:13;58.65;;;23.05;;
70216;SDS011;65567;55.684;37.570;2024-03-02T12:24:44;72.32;;;26.70;;
70216;SDS011;65567;55.684;37.570;2024-03-02T12:27:11;71.00;;;27.88;;
70216;SDS011;65567;55.684;37.570;2024-03-02T12:29:38;92.45;;;27.77;;
70216;SDS011;65567;55.684;37.570;2024-03-02T12:32:04;40.03;;;22.60;;
70216;SDS011;65567;55.684;37.570;2024-03-02T12:34:31;66.85;;;23.77;;
70216;SDS011;65567;55.684;37.570;2024-03-02T12:36:57;57.10;;;22.60;;
70216;SDS011;65567;55.684;37.570;2024-03-02T12:39:22;82.25;;;22.60;;
70216;SDS011;65567;55.684;37.570;2024-03-02T12:41:49;43.42;;;20.23;;
70216;SDS011;65567;55.684;37.570;2024-03-02T12:44:19;84.82;;;22.73;;
70216;SDS011;65567;55.684;37.570;2024-03-02T12:46:45;40.90;;;18.15;;
70216;SDS011;65567;55.684;37.570;2024-03-02T12:49:12;75.85;;;22.33;;
70216;SDS011;65567;55.684;37.570;2024-03-02T12:51:41;42.95;;;17.25;;
70216;SDS011;65567;55.684;37.570;2024-03-02T12:54:10;61.88;;;20.15;;
70216;SDS011;65567;55.684;37.570;2024-03-02T12:56:40;59.95;;;17.63;;
70216;SDS011;65567;55.684;37.570;2024-03-02T12:59:17;63.05;;;19.70;;
70216;SDS011;65567;55.684;37.570;2024-03-02T13:01:53;56.33;;;17.42;;
70216;SDS011;65567;55.684;37.570;2024-03-02T13:04:27;33.85;;;13.93;;
70216;SDS011;65567;55.684;37.570;2024-03-02T13:06:54;54.50;;;18.05;;
70216;SDS011;65567;55.684;37.570;2024-03-02T13:09:23;28.02;;;11.43;;
70216;SDS011;65567;55.684;37.570;2024-03-02T13:11:49;30.38;;;10.70;;
70216;SDS011;65567;55.684;37.570;2024-03-02T13:14:15;40.13;;;12.25;;
70216;SDS011;65567;55.684;37.570;2024-03-02T13:16:41;32.63;;;13.85;;
70216;SDS011;65567;55.684;37.570;2024-03-02T13:19:08;24.60;;;12.40;;
70216;SDS011;65567;55.684;37.570;2024-03-02T13:21:35;49.28;;;16.85;;
70216;SDS011;65567;55.684;37.570;2024-03-02T13:24:01;41.42;;;13.50;;
70216;SDS011;65567;55.684;37.570;2024-03-02T13:26:27;30.85;;;14.38;;
70216;SDS011;65567;55.684;37.570;2024-03-02T13:28:53;60.78;;;18.33;;
70216;SDS011;65567;55.684;37.570;2024-03-02T13:31:19;37.95;;;16.15;;
70216;SDS011;65567;55.684;37.570;2024-03-02T13:33:44;49.45;;;20.55;;
70216;SDS011;65567;55.684;37.570;2024-03-02T13:36:10;63.90;;;20.08;;
70216;SDS011;65567;55.684;37.570;2024-03-02T13:38:36;49.33;;;18.25;;
70216;SDS011;65567;55.684;37.570;2024-03-02T13:41:02;28.30;;;11.48;;
70216;SDS011;65567;55.684;37.570;2024-03-02T13:43:27;40.10;;;18.20;;
70216;SDS011;65567;55.684;37.570;2024-03-02T13:45:56;65.53;;;21.67;;
70216;SDS011;65567;55.684;37.570;2024-03-02T13:48:23;67.65;;;21.63;;
70216;SDS011;65567;55.684;37.570;2024-03-02T13:50:51;67.93;;;22.35;;
70216;SDS011;65567;55.684;37.570;2024-03-02T13:53:18;55.47;;;19.50;;
70216;SDS011;65567;55.684;37.570;2024-03-02T13:55:44;57.75;;;19.05;;
70216;SDS011;65567;55.684;37.570;2024-03-02T13:58:10;28.42;;;17.05;;
70216;SDS011;65567;55.684;37.570;2024-03-02T14:00:37;48.33;;;20.25;;
70216;SDS011;65567;55.684;37.570;2024-03-02T14:03:07;38.50;;;20.35;;
70216;SDS011;65567;55.684;37.570;2024-03-02T14:05:32;42.53;;;21.40;;
70216;SDS011;65567;55.684;37.570;2024-03-02T14:07:58;43.45;;;22.75;;
70216;SDS011;65567;55.684;37.570;2024-03-02T14:10:25;45.67;;;23.63;;
70216;SDS011;65567;55.684;37.570;2024-03-02T14:12:52;36.90;;;22.05;;
70216;SDS011;65567;55.684;37.570;2024-03-02T14:15:20;36.65;;;20.42;;
70216;SDS011;65567;55.684;37.570;2024-03-02T14:17:46;39.28;;;24.20;;
70216;SDS011;65567;55.684;37.570;2024-03-02T14:20:12;34.22;;;15.88;;
70216;SDS011;65567;55.684;37.570;2024-03-02T14:22:39;45.38;;;21.67;;
70216;SDS011;65567;55.684;37.570;2024-03-02T14:25:05;44.42;;;21.80;;
70216;SDS011;65567;55.684;37.570;2024-03-02T14:27:30;36.47;;;20.30;;
70216;SDS011;65567;55.684;37.570;2024-03-02T14:29:58;29.48;;;18.80;;
70216;SDS011;65567;55.684;37.570;2024-03-02T14:32:24;35.58;;;19.42;;